createdAt,value
2018-09-02T00:02:04.472Z,64.54
2018-09-02T00:04:30.785Z,64.81
2018-09-02T00:06:57.146Z,65.21
2018-09-02T00:09:23.449Z,65.27
2018-09-02T00:11:49.775Z,65.32
2018-09-02T00:14:16.099Z,65.08
2018-09-02T00:16:42.494Z,65.37
2018-09-02T00:19:08.816Z,65.45
2018-09-02T00:21:35.145Z,65.98
2018-09-02T00:24:01.452Z,66.01
2018-09-02T00:26:27.775Z,65.89
2018-09-02T00:28:54.139Z,66.35
2018-09-02T00:31:20.459Z,66.69
2018-09-02T00:33:46.849Z,66.46
2018-09-02T00:36:13.114Z,66.31
2018-09-02T00:38:39.432Z,66.24
2018-09-02T00:41:05.759Z,66.61
2018-09-02T00:43:32.074Z,66.90
2018-09-02T00:45:58.391Z,66.78
2018-09-02T00:48:24.703Z,66.65
2018-09-02T00:50:51.029Z,66.47
2018-09-02T00:53:17.343Z,66.63
2018-09-02T00:55:43.655Z,66.88
2018-09-02T00:58:09.968Z,66.58
2018-09-02T01:00:36.279Z,66.37
2018-09-02T01:03:02.602Z,65.94
2018-09-02T01:05:28.919Z,66.00
2018-09-02T01:07:55.240Z,65.65
2018-09-02T01:10:21.561Z,65.56
2018-09-02T01:12:47.884Z,65.58
2018-09-02T01:15:14.209Z,65.32
2018-09-02T01:17:40.537Z,65.06
2018-09-02T01:20:06.861Z,65.20
2018-09-02T01:22:33.195Z,64.56
2018-09-02T01:24:59.519Z,64.39
2018-09-02T01:27:25.847Z,64.14
2018-09-02T01:29:52.180Z,63.58
2018-09-02T01:32:18.492Z,63.71
2018-09-02T01:34:44.813Z,63.51
2018-09-02T01:37:11.127Z,63.72
2018-09-02T01:39:37.437Z,63.77
2018-09-02T01:42:03.756Z,63.88
2018-09-02T01:44:30.081Z,64.13
2018-09-02T01:46:56.410Z,63.97
2018-09-02T01:49:22.740Z,64.19
2018-09-02T01:51:49.072Z,63.85
2018-09-02T01:54:15.388Z,63.64
2018-09-02T01:56:41.711Z,63.60
2018-09-02T01:59:08.034Z,63.42
2018-09-02T02:01:34.355Z,63.25
2018-09-02T02:04:00.672Z,62.81
2018-09-02T02:06:26.986Z,62.91
2018-09-02T02:08:53.310Z,62.94
2018-09-02T02:11:19.625Z,63.02
2018-09-02T02:13:45.938Z,63.09
2018-09-02T02:16:12.257Z,63.64
2018-09-02T02:18:38.621Z,63.56
2018-09-02T02:21:04.937Z,63.53
2018-09-02T02:23:31.254Z,63.96
2018-09-02T02:25:57.564Z,63.85
2018-09-02T02:28:23.879Z,63.54
2018-09-02T02:30:50.255Z,63.83
2018-09-02T02:33:16.574Z,64.11
2018-09-02T02:35:42.890Z,64.96
2018-09-02T02:38:09.211Z,64.72
2018-09-02T02:40:35.577Z,64.66
2018-09-02T02:43:01.906Z,64.96
2018-09-02T02:45:28.276Z,65.32
2018-09-02T02:47:54.592Z,65.56
2018-09-02T02:50:20.907Z,65.62
2018-09-02T02:52:47.267Z,65.37
2018-09-02T02:55:13.595Z,65.65
2018-09-02T02:57:39.909Z,66.25
2018-09-02T03:00:06.280Z,66.86
2018-09-02T03:02:32.610Z,66.84
2018-09-02T03:04:58.919Z,66.29
2018-09-02T03:07:25.247Z,66.59
2018-09-02T03:09:51.563Z,66.24
2018-09-02T03:12:17.884Z,66.28
2018-09-02T03:14:44.190Z,66.24
2018-09-02T03:17:10.500Z,66.25
2018-09-02T03:19:36.816Z,66.19
2018-09-02T03:22:03.197Z,66.41
2018-09-02T03:24:29.541Z,66.23
2018-09-02T03:26:55.824Z,66.36
2018-09-02T03:29:22.142Z,66.35
2018-09-02T03:31:49.683Z,66.43
2018-09-02T03:34:14.786Z,66.23
2018-09-02T03:36:41.109Z,66.49
2018-09-02T03:39:07.455Z,66.72
2018-09-02T03:41:33.817Z,66.83
2018-09-02T03:44:00.100Z,66.92
2018-09-02T03:46:26.423Z,66.80
2018-09-02T03:48:52.783Z,66.85
2018-09-02T03:51:19.097Z,67.22
2018-09-02T03:53:45.484Z,67.22
2018-09-02T03:56:11.819Z,67.22
2018-09-02T03:58:38.198Z,67.12
2018-09-02T04:01:04.519Z,67.46
2018-09-02T04:03:30.871Z,67.54
2018-09-02T04:05:57.203Z,67.62
2018-09-02T04:08:23.535Z,67.87
2018-09-02T04:10:49.854Z,68.14
2018-09-02T04:13:16.168Z,68.36
2018-09-02T04:15:42.506Z,68.51
2018-09-02T04:18:08.822Z,68.68
2018-09-02T04:20:35.186Z,68.74
2018-09-02T04:23:01.497Z,68.88
2018-09-02T04:25:27.824Z,69.18
2018-09-02T04:27:54.147Z,69.41
2018-09-02T04:30:20.539Z,69.17
2018-09-02T04:32:46.850Z,69.53
2018-09-02T04:35:13.167Z,69.62
2018-09-02T04:37:39.499Z,70.13
2018-09-02T04:40:05.815Z,69.64
2018-09-02T04:42:32.187Z,70.07
2018-09-02T04:44:58.508Z,70.14
2018-09-02T04:47:24.822Z,69.82
2018-09-02T04:49:51.186Z,70.53
2018-09-02T04:52:17.475Z,70.53
2018-09-02T04:54:43.805Z,70.59
2018-09-02T04:57:10.132Z,70.44
2018-09-02T04:59:36.434Z,70.75
2018-09-02T05:02:02.751Z,71.04
2018-09-02T05:04:29.071Z,71.26
2018-09-02T05:06:55.376Z,71.30
2018-09-02T05:09:21.708Z,71.81
2018-09-02T05:11:48.053Z,71.67
2018-09-02T05:14:14.482Z,71.80
2018-09-02T05:16:40.702Z,71.73
2018-09-02T05:19:07.007Z,71.57
2018-09-02T05:21:33.319Z,70.89
2018-09-02T05:23:59.640Z,70.78
2018-09-02T05:26:25.951Z,70.69
2018-09-02T05:28:52.271Z,69.93
2018-09-02T05:31:18.592Z,69.88
2018-09-02T05:33:44.966Z,69.53
2018-09-02T05:36:11.305Z,69.24
2018-09-02T05:38:37.634Z,69.37
2018-09-02T05:41:03.967Z,69.29
2018-09-02T05:43:30.290Z,69.21
2018-09-02T05:45:56.612Z,67.74
2018-09-02T05:48:22.933Z,67.33
2018-09-02T05:50:49.265Z,67.74
2018-09-02T05:53:15.582Z,68.91
2018-09-02T05:55:41.906Z,68.24
2018-09-02T05:58:08.228Z,67.17
2018-09-02T06:00:34.540Z,67.14
2018-09-02T06:03:00.850Z,67.25
2018-09-02T06:05:27.168Z,67.03
2018-09-02T06:07:53.487Z,67.10
2018-09-02T06:10:19.805Z,66.65
2018-09-02T06:12:46.159Z,65.67
2018-09-02T06:15:12.469Z,66.33
2018-09-02T06:17:38.797Z,65.72
2018-09-02T06:20:05.108Z,65.66
2018-09-02T06:22:31.429Z,65.62
2018-09-02T06:24:57.741Z,65.22
2018-09-02T06:27:24.099Z,65.21
2018-09-02T06:29:50.453Z,65.01
2018-09-02T06:32:16.781Z,64.34
2018-09-02T06:34:43.097Z,64.39
2018-09-02T06:37:09.425Z,63.77
2018-09-02T06:39:35.788Z,62.96
2018-09-02T06:42:02.069Z,63.00
2018-09-02T06:44:28.378Z,62.75
2018-09-02T06:46:54.774Z,62.58
2018-09-02T06:49:21.121Z,61.67
2018-09-02T06:51:47.422Z,61.68
2018-09-02T06:54:13.772Z,61.86
2018-09-02T06:56:40.073Z,60.35
2018-09-02T06:59:06.390Z,59.87
2018-09-02T07:01:32.712Z,60.52
2018-09-02T07:03:59.042Z,59.97
2018-09-02T07:06:25.399Z,59.75
2018-09-02T07:08:51.733Z,58.22
2018-09-02T07:11:18.062Z,57.91
2018-09-02T07:13:44.382Z,58.45
2018-09-02T07:16:10.700Z,58.36
2018-09-02T07:18:37.029Z,57.75
2018-09-02T07:21:03.358Z,57.78
2018-09-02T07:23:29.681Z,58.38
2018-09-02T07:25:56.012Z,58.41
2018-09-02T07:28:22.379Z,57.84
2018-09-02T07:30:48.709Z,57.67
2018-09-02T07:33:15.050Z,58.24
2018-09-02T07:35:41.403Z,57.80
2018-09-02T07:38:07.736Z,57.98
2018-09-02T07:40:34.050Z,57.73
2018-09-02T07:43:00.441Z,56.21
2018-09-02T07:45:26.736Z,56.23
2018-09-02T07:47:53.053Z,55.58
2018-09-02T07:50:19.373Z,56.16
2018-09-02T07:52:45.701Z,55.33
2018-09-02T07:55:12.017Z,55.06
2018-09-02T07:57:38.361Z,53.70
2018-09-02T08:00:04.672Z,53.75
2018-09-02T08:02:31.061Z,53.14
2018-09-02T08:04:57.327Z,52.61
2018-09-02T08:07:23.657Z,51.84
2018-09-02T08:09:50.021Z,50.74
2018-09-02T08:12:16.352Z,50.89
2018-09-02T08:14:42.691Z,50.36
2018-09-02T08:17:09.047Z,50.00
2018-09-02T08:19:35.324Z,49.47
2018-09-02T08:22:01.678Z,49.34
2018-09-02T08:24:28.021Z,49.39
2018-09-02T08:26:54.348Z,50.09
2018-09-02T08:29:20.666Z,50.75
2018-09-02T08:31:46.991Z,50.00
2018-09-02T08:34:13.359Z,48.98
2018-09-02T08:36:39.687Z,48.30
2018-09-02T08:39:06.014Z,48.86
2018-09-02T08:41:32.338Z,48.64
2018-09-02T08:43:58.712Z,49.46
2018-09-02T08:46:25.038Z,49.47
2018-09-02T08:48:51.454Z,48.92
2018-09-02T08:51:17.776Z,48.65
2018-09-02T08:53:44.112Z,47.89
2018-09-02T08:56:10.426Z,47.92
2018-09-02T08:58:36.735Z,48.00
2018-09-02T09:01:03.107Z,46.94
2018-09-02T09:03:29.430Z,46.24
2018-09-02T09:05:55.752Z,46.69
2018-09-02T09:08:22.119Z,45.47
2018-09-02T09:10:48.404Z,44.77
2018-09-02T09:13:14.762Z,44.72
2018-09-02T09:15:41.084Z,43.89
2018-09-02T09:18:07.397Z,43.19
2018-09-02T09:20:33.709Z,41.91
2018-09-02T09:23:00.024Z,41.67
2018-09-02T09:25:26.351Z,42.27
2018-09-02T09:27:52.776Z,41.99
2018-09-02T09:30:19.141Z,40.62
2018-09-02T09:32:45.454Z,40.30
2018-09-02T09:35:11.773Z,40.66
2018-09-02T09:37:38.120Z,39.71
2018-09-02T09:40:04.437Z,39.41
2018-09-02T09:42:30.767Z,38.53
2018-09-02T09:44:57.107Z,37.40
2018-09-02T09:47:23.433Z,37.44
2018-09-02T09:49:49.761Z,38.07
2018-09-02T09:52:16.093Z,36.66
2018-09-02T09:54:42.454Z,36.08
2018-09-02T09:57:08.763Z,36.55
2018-09-02T09:59:35.086Z,35.37
2018-09-02T10:02:01.401Z,35.77
2018-09-02T10:04:27.715Z,35.74
2018-09-02T10:06:54.052Z,35.34
2018-09-02T10:09:23.407Z,35.23
2018-09-02T10:11:49.796Z,35.88
2018-09-02T10:14:31.701Z,35.60
2018-09-02T10:16:51.614Z,35.26
2018-09-02T10:19:17.924Z,34.16
2018-09-02T10:21:44.270Z,34.06
2018-09-02T10:24:10.584Z,33.99
2018-09-02T10:26:36.896Z,34.08
2018-09-02T10:29:03.222Z,34.84
2018-09-02T10:31:29.553Z,34.90
2018-09-02T10:33:55.882Z,34.17
2018-09-02T10:36:22.196Z,33.67
2018-09-02T10:38:48.522Z,33.73
2018-09-02T10:41:14.969Z,32.69
2018-09-02T10:43:41.231Z,33.59
2018-09-02T10:46:07.544Z,34.12
2018-09-02T10:48:33.851Z,33.33
2018-09-02T10:51:00.187Z,32.46
2018-09-02T10:53:26.491Z,32.30
2018-09-02T10:55:52.819Z,30.91
2018-09-02T10:58:19.156Z,31.20
2018-09-02T11:00:45.480Z,30.02
2018-09-02T11:03:11.812Z,30.04
2018-09-02T11:05:38.115Z,31.39
2018-09-02T11:08:04.427Z,31.50
2018-09-02T11:10:30.741Z,30.43
2018-09-02T11:12:57.073Z,29.63
2018-09-02T11:15:23.363Z,30.68
2018-09-02T11:17:49.745Z,30.66
2018-09-02T11:20:16.130Z,29.56
2018-09-02T11:22:42.411Z,29.58
2018-09-02T11:25:08.724Z,29.91
2018-09-02T11:27:35.091Z,30.16
2018-09-02T11:30:01.423Z,30.07
2018-09-02T11:32:27.732Z,30.75
2018-09-02T11:34:54.057Z,29.96
2018-09-02T11:37:20.371Z,31.50
2018-09-02T11:39:46.698Z,30.96
2018-09-02T11:42:13.013Z,30.81
2018-09-02T11:44:39.359Z,30.02
2018-09-02T11:47:05.675Z,29.84
2018-09-02T11:49:31.981Z,29.46
2018-09-02T11:51:58.297Z,29.56
2018-09-02T11:54:24.621Z,30.75
2018-09-02T11:56:50.985Z,30.89
2018-09-02T11:59:17.310Z,30.85
2018-09-02T12:01:43.621Z,30.29
2018-09-02T12:04:09.951Z,31.66
2018-09-02T12:06:36.265Z,30.67
2018-09-02T12:09:02.632Z,29.59
2018-09-02T12:11:29.022Z,29.34
2018-09-02T12:13:55.544Z,30.87
2018-09-02T12:16:21.656Z,30.51
2018-09-02T12:18:47.966Z,30.73
2018-09-02T12:21:14.339Z,30.01
2018-09-02T12:23:40.653Z,29.91
2018-09-02T12:26:06.963Z,29.28
2018-09-02T12:28:33.313Z,30.28
2018-09-02T12:30:59.620Z,28.91
2018-09-02T12:33:25.947Z,29.59
2018-09-02T12:35:52.251Z,30.36
2018-09-02T12:38:18.621Z,30.62
2018-09-02T12:40:44.933Z,31.49
2018-09-02T12:43:11.287Z,31.31
2018-09-02T12:45:37.601Z,30.04
2018-09-02T12:48:03.984Z,30.32
2018-09-02T12:50:30.251Z,31.81
2018-09-02T12:52:56.894Z,31.53
2018-09-02T12:55:22.993Z,31.20
2018-09-02T12:57:49.239Z,29.82
2018-09-02T13:00:15.567Z,30.21
2018-09-02T13:02:41.901Z,30.85
2018-09-02T13:05:08.212Z,30.11
2018-09-02T13:07:34.550Z,30.37
2018-09-02T13:10:00.871Z,31.03
2018-09-02T13:12:27.198Z,31.30
2018-09-02T13:14:53.528Z,31.40
2018-09-02T13:17:19.855Z,31.18
2018-09-02T13:19:46.213Z,31.16
2018-09-02T13:22:12.529Z,30.28
2018-09-02T13:24:38.889Z,31.02
2018-09-02T13:27:05.169Z,30.05
2018-09-02T13:29:31.492Z,30.40
2018-09-02T13:31:57.801Z,30.87
2018-09-02T13:34:24.131Z,30.51
2018-09-02T13:36:50.475Z,33.67
2018-09-02T13:39:16.793Z,28.03
2018-09-02T13:41:43.162Z,27.59
2018-09-02T13:44:09.493Z,27.38
2018-09-02T13:46:35.811Z,27.78
2018-09-02T13:49:02.184Z,27.92
2018-09-02T13:51:28.574Z,28.97
2018-09-02T13:53:54.820Z,28.19
2018-09-02T13:56:21.147Z,28.57
2018-09-02T13:58:47.473Z,29.34
2018-09-02T14:01:14.049Z,28.33
2018-09-02T14:03:40.128Z,27.99
2018-09-02T14:06:06.453Z,28.10
2018-09-02T14:08:32.832Z,28.61
2018-09-02T14:10:59.159Z,28.40
2018-09-02T14:13:25.487Z,27.95
2018-09-02T14:15:51.809Z,28.33
2018-09-02T14:18:18.133Z,28.07
2018-09-02T14:20:44.462Z,28.43
2018-09-02T14:23:10.776Z,28.00
2018-09-02T14:25:37.089Z,28.10
2018-09-02T14:28:03.415Z,28.01
2018-09-02T14:30:29.742Z,28.77
2018-09-02T14:32:56.052Z,28.28
2018-09-02T14:35:22.414Z,29.21
2018-09-02T14:37:48.726Z,29.03
2018-09-02T14:40:15.031Z,28.61
2018-09-02T14:42:41.343Z,28.93
2018-09-02T14:45:07.709Z,29.49
2018-09-02T14:47:34.043Z,29.65
2018-09-02T14:50:00.353Z,30.08
2018-09-02T14:52:26.670Z,28.84
2018-09-02T14:54:53.001Z,28.83
2018-09-02T14:57:19.324Z,28.79
2018-09-02T14:59:45.676Z,29.37
2018-09-02T15:02:12.009Z,29.43
2018-09-02T15:04:38.338Z,29.48
2018-09-02T15:07:04.647Z,29.91
2018-09-02T15:09:30.974Z,29.60
2018-09-02T15:11:57.300Z,29.57
2018-09-02T15:14:23.627Z,29.83
2018-09-02T15:16:51.210Z,29.67
2018-09-02T15:19:17.535Z,29.29
2018-09-02T15:21:43.840Z,29.55
2018-09-02T15:24:10.169Z,30.47
2018-09-02T15:26:36.497Z,29.66
2018-09-02T15:29:02.843Z,30.08
2018-09-02T15:31:29.161Z,30.46
2018-09-02T15:33:55.468Z,30.41
2018-09-02T15:36:21.797Z,29.67
2018-09-02T15:38:48.161Z,30.65
2018-09-02T15:41:14.443Z,30.16
2018-09-02T15:43:40.778Z,29.78
2018-09-02T15:46:07.089Z,30.84
2018-09-02T15:48:33.401Z,30.55
2018-09-02T15:50:59.735Z,31.45
2018-09-02T15:53:26.122Z,32.16
2018-09-02T15:55:52.429Z,32.34
2018-09-02T15:58:19.820Z,32.25
2018-09-02T16:00:46.323Z,31.63
2018-09-02T16:03:12.886Z,31.83
2018-09-02T16:05:40.752Z,33.24
2018-09-02T16:08:06.390Z,33.66
2018-09-02T16:10:32.685Z,34.68
2018-09-02T16:12:59.291Z,34.76
2018-09-02T16:15:25.537Z,34.11
2018-09-02T16:17:51.847Z,33.55
2018-09-02T16:20:18.233Z,34.23
2018-09-02T16:22:44.880Z,34.66
2018-09-02T16:25:11.198Z,34.13
2018-09-02T16:27:37.509Z,34.84
2018-09-02T16:30:04.193Z,34.30
2018-09-02T16:32:30.566Z,34.26
2018-09-02T16:34:56.895Z,35.95
2018-09-02T16:37:23.208Z,34.10
2018-09-02T16:39:49.520Z,34.86
2018-09-02T16:42:15.880Z,35.18
2018-09-02T16:44:42.210Z,36.64
2018-09-02T16:47:08.522Z,36.16
2018-09-02T16:49:34.857Z,36.20
2018-09-02T16:52:01.169Z,36.98
2018-09-02T16:54:27.503Z,37.30
2018-09-02T16:56:53.830Z,36.13
2018-09-02T16:59:20.205Z,36.78
2018-09-02T17:01:46.535Z,37.11
2018-09-02T17:04:12.852Z,37.02
2018-09-02T17:06:39.164Z,37.70
2018-09-02T17:09:05.536Z,37.53
2018-09-02T17:11:31.908Z,37.29
2018-09-02T17:13:58.238Z,37.65
2018-09-02T17:16:24.607Z,36.96
2018-09-02T17:18:50.922Z,37.69
2018-09-02T17:21:17.292Z,36.34
2018-09-02T17:23:43.602Z,38.21
2018-09-02T17:26:09.981Z,37.56
2018-09-02T17:28:36.281Z,37.30
2018-09-02T17:31:02.589Z,37.29
2018-09-02T17:33:28.905Z,37.35
2018-09-02T17:35:55.220Z,37.50
2018-09-02T17:38:21.551Z,37.49
2018-09-02T17:40:47.865Z,38.89
2018-09-02T17:43:14.201Z,38.55
2018-09-02T17:45:40.571Z,37.69
2018-09-02T17:48:06.839Z,37.72
2018-09-02T17:50:33.167Z,38.20
2018-09-02T17:52:59.493Z,38.06
2018-09-02T17:55:25.886Z,37.65
2018-09-02T17:57:52.233Z,39.01
2018-09-02T18:00:18.559Z,38.65
2018-09-02T18:02:44.871Z,39.02
2018-09-02T18:05:11.214Z,38.27
2018-09-02T18:07:37.528Z,39.11
2018-09-02T18:10:03.862Z,39.51
2018-09-02T18:12:30.169Z,39.25
2018-09-02T18:14:56.496Z,39.57
2018-09-02T18:17:22.821Z,40.04
2018-09-02T18:19:49.135Z,39.52
2018-09-02T18:22:15.461Z,39.85
2018-09-02T18:24:41.790Z,39.61
2018-09-02T18:27:08.105Z,39.81
2018-09-02T18:29:34.433Z,40.00
2018-09-02T18:32:00.745Z,39.76
2018-09-02T18:34:27.065Z,40.02
2018-09-02T18:36:53.380Z,40.10
2018-09-02T18:39:19.815Z,40.47
2018-09-02T18:41:46.046Z,40.28
2018-09-02T18:44:12.380Z,40.42
2018-09-02T18:46:38.704Z,40.34
2018-09-02T18:49:05.025Z,40.60
2018-09-02T18:51:31.353Z,41.01
2018-09-02T18:53:57.681Z,41.15
2018-09-02T18:56:23.994Z,40.69
2018-09-02T18:58:50.373Z,41.32
2018-09-02T19:01:16.683Z,40.53
2018-09-02T19:03:43.014Z,40.52
2018-09-02T19:06:09.339Z,40.83
2018-09-02T19:08:35.705Z,41.53
2018-09-02T19:11:02.029Z,41.82
2018-09-02T19:13:28.379Z,41.44
2018-09-02T19:15:54.695Z,41.51
2018-09-02T19:18:21.242Z,41.64
2018-09-02T19:20:47.551Z,41.85
2018-09-02T19:23:13.860Z,41.75
2018-09-02T19:25:40.267Z,41.98
2018-09-02T19:28:06.563Z,41.84
2018-09-02T19:30:32.936Z,41.78
2018-09-02T19:32:59.247Z,41.53
2018-09-02T19:35:25.615Z,41.53
2018-09-02T19:37:51.932Z,41.61
2018-09-02T19:40:18.319Z,41.15
2018-09-02T19:42:44.580Z,41.46
2018-09-02T19:45:10.911Z,41.36
2018-09-02T19:47:37.244Z,41.34
2018-09-02T19:50:03.560Z,41.29
2018-09-02T19:52:29.885Z,41.35
2018-09-02T19:54:56.196Z,41.66
2018-09-02T19:57:22.503Z,41.02
2018-09-02T19:59:48.863Z,41.39
2018-09-02T20:02:15.178Z,41.13
2018-09-02T20:04:41.503Z,40.95
2018-09-02T20:07:07.834Z,41.10
2018-09-02T20:09:34.148Z,40.91
2018-09-02T20:12:00.475Z,41.25
2018-09-02T20:14:26.805Z,41.34
2018-09-02T20:16:53.125Z,41.03
2018-09-02T20:19:19.428Z,41.66
2018-09-02T20:21:45.759Z,41.34
2018-09-02T20:24:12.099Z,41.56
2018-09-02T20:26:38.430Z,41.93
2018-09-02T20:29:04.756Z,42.00
2018-09-02T20:31:31.063Z,42.04
2018-09-02T20:33:57.407Z,42.02
2018-09-02T20:36:23.784Z,42.17
2018-09-02T20:38:50.110Z,41.24
2018-09-02T20:41:16.416Z,41.90
2018-09-02T20:43:42.736Z,41.85
2018-09-02T20:46:09.051Z,41.89
2018-09-02T20:48:35.379Z,41.14
2018-09-02T20:51:01.719Z,42.10
2018-09-02T20:53:27.992Z,41.84
2018-09-02T20:55:54.302Z,41.76
2018-09-02T20:58:20.616Z,42.09
2018-09-02T21:00:46.950Z,42.24
2018-09-02T21:03:13.307Z,41.72
2018-09-02T21:05:39.662Z,42.03
2018-09-02T21:08:05.981Z,42.03
2018-09-02T21:10:32.323Z,42.25
2018-09-02T21:12:58.650Z,42.24
2018-09-02T21:15:24.985Z,42.37
2018-09-02T21:17:51.308Z,42.44
2018-09-02T21:20:17.798Z,42.91
2018-09-02T21:22:44.125Z,42.88
2018-09-02T21:25:10.443Z,43.11
2018-09-02T21:27:36.768Z,43.17
2018-09-02T21:30:04.733Z,43.44
2018-09-02T21:32:31.039Z,43.77
2018-09-02T21:34:57.359Z,43.68
2018-09-02T21:37:23.711Z,43.79
2018-09-02T21:39:50.024Z,43.79
2018-09-02T21:42:16.360Z,43.41
2018-09-02T21:44:42.724Z,43.85
2018-09-02T21:47:09.096Z,43.67
2018-09-02T21:49:35.519Z,43.98
2018-09-02T21:52:01.865Z,43.98
2018-09-02T21:54:28.175Z,44.46
2018-09-02T21:56:54.489Z,44.71
2018-09-02T21:59:20.821Z,45.16
2018-09-02T22:01:47.147Z,44.94
2018-09-02T22:04:13.557Z,45.65
2018-09-02T22:06:39.919Z,45.70
2018-09-02T22:09:06.310Z,46.02
2018-09-02T22:11:32.610Z,46.13
2018-09-02T22:13:58.938Z,46.32
2018-09-02T22:16:25.259Z,46.04
2018-09-02T22:18:51.583Z,46.38
2018-09-02T22:21:17.897Z,46.26
2018-09-02T22:23:44.229Z,46.31
2018-09-02T22:26:10.565Z,46.20
2018-09-02T22:28:36.895Z,46.32
2018-09-02T22:31:03.223Z,46.34
2018-09-02T22:33:29.553Z,46.96
2018-09-02T22:35:55.906Z,47.24
2018-09-02T22:38:22.331Z,47.60
2018-09-02T22:40:48.654Z,47.57
2018-09-02T22:43:14.986Z,47.60
2018-09-02T22:45:41.324Z,47.70
2018-09-02T22:48:07.651Z,48.15
2018-09-02T22:50:33.972Z,48.43
2018-09-02T22:53:00.315Z,48.36
2018-09-02T22:55:26.642Z,48.55
2018-09-02T22:57:53.022Z,48.71
2018-09-02T23:00:19.332Z,48.88
2018-09-02T23:02:45.660Z,48.67
2018-09-02T23:05:11.996Z,48.63
2018-09-02T23:07:38.318Z,48.71
2018-09-02T23:10:04.655Z,48.89
2018-09-02T23:12:30.975Z,48.80
2018-09-02T23:14:57.298Z,48.96
2018-09-02T23:17:23.639Z,49.26
2018-09-02T23:19:49.960Z,49.55
2018-09-02T23:22:16.293Z,49.76
2018-09-02T23:24:42.614Z,50.19
2018-09-02T23:27:08.943Z,49.93
2018-09-02T23:29:35.269Z,49.72
2018-09-02T23:32:01.647Z,49.63
2018-09-02T23:34:28.012Z,49.47
2018-09-02T23:36:54.326Z,49.75
2018-09-02T23:39:20.682Z,49.94
2018-09-02T23:41:46.998Z,50.05
2018-09-02T23:44:13.380Z,49.99
2018-09-02T23:46:39.704Z,50.50
2018-09-02T23:49:06.020Z,50.38
2018-09-02T23:51:32.349Z,50.33
2018-09-02T23:53:58.693Z,51.05
2018-09-02T23:56:25.017Z,50.79
2018-09-02T23:58:51.398Z,50.58
